ADDS METAR Data

Data at: 0744 UTC 24 Oct 2017

METAR for:KLWM (Lawrence Muni, MA, US)
Text:KLWM 240654Z AUTO 12003KT 10SM FEW031 FEW043 18/16 A3010 RMK AO2 SLP193 T01830161
Temperature: 18.3°C ( 65°F)
Dewpoint: 16.1°C ( 61°F) [RH = 87%]
Pressure (altimeter):30.10 inches Hg (1019.4 mb) [Sea level pressure: 1019.3 mb]
Winds:from the ESE (120 degrees) at 3 MPH (3 knots; 1.5 m/s)
Visibility:10 or more sm (16+ km)
Ceiling:at least 12,000 feet AGL
Clouds: few clouds at 3100 feet AGL, few clouds at 4300 feet AGL
QC Flag:automated observation with no human augmentation